Time;durP1;ratioP1;P1;durP2;ratioP2;P2;SDS_P1;SDS_P2;PMS_P1;PMS_P2;Temp;Humidity;BMP_temperature;BMP_pressure;BME280_temperature;BME280_humidity;BME280_pressure;Samples;Min_cycle;Max_cycle;Signal;HPM_P1;HPM_P2
2023/10/14 06:45:30;;;;;;;10.82;1.58;;;;;;;;;;4937887;29;20035;-90
2023/10/14 06:48:45;;;;;;;;;;;;;;;;;;;;;
2023/10/14 06:59:45;;;;;;;10.88;1.58;;;;;;;;;;4938304;29;20044;-88
2023/10/14 07:06:28;;;;;;;;;;;;;;;;;;;;;
2023/10/14 07:09:31;;;;;;;14.75;1.38;;;;;;;;;;4937234;29;19911;-87
2023/10/14 07:12:15;;;;;;;10.65;1.30;;;;;;;;;;4939330;29;20052;-90
2023/10/14 07:18:33;;;;;;;10.57;1.25;;;;;;;;;;4946609;28;20028;-90
2023/10/14 07:21:38;;;;;;;9.95;1.50;;;;;;;;;;4933556;29;20044;-91
2023/10/14 07:34:34;;;;;;;10.65;1.38;;;;;;;;;;4941133;29;20068;-90
2023/10/14 07:37:17;;;;;;;9.02;1.83;;;;;;;;;;4938723;29;20044;-89
2023/10/14 07:43:54;;;;;;;11.98;1.55;;;;;;;;;;4933786;29;20063;-89
2023/10/14 07:47:15;;;;;;;;;;;;;;;;;;;;;
2023/10/14 07:50:16;;;;;;;12.60;1.55;;;;;;;;;;4974276;23;20044;-88
2023/10/14 07:53:18;;;;;;;10.57;1.65;;;;;;;;;;4948038;29;20108;-90
2023/10/14 07:56:29;;;;;;;7.57;1.55;;;;;;;;;;4932902;29;20048;-89
2023/10/14 07:59:43;;;;;;;16.23;1.55;;;;;;;;;;4920475;29;20047;-89
2023/10/14 08:02:36;;;;;;;8.52;1.60;;;;;;;;;;4941409;29;20052;-89
2023/10/14 08:05:38;;;;;;;8.60;2.33;;;;;;;;;;4949273;29;20052;-90
2023/10/14 08:08:59;;;;;;;13.52;2.00;;;;;;;;;;4956912;29;20042;-90
2023/10/14 08:26:11;;;;;;;;;;;;;;;;;;;;;
2023/10/14 08:31:37;;;;;;;11.70;1.70;;;;;;;;;;5047518;23;20052;-91
2023/10/14 08:34:32;;;;;;;10.18;1.40;;;;;;;;;;4936502;29;20063;-91
2023/10/14 08:37:07;;;;;;;6.93;1.70;;;;;;;;;;4935218;29;20314;-90
2023/10/14 08:40:08;;;;;;;8.50;1.40;;;;;;;;;;4933837;29;20111;-91
2023/10/14 08:43:26;;;;;;;7.18;1.30;;;;;;;;;;4917205;29;20052;-89
2023/10/14 08:46:34;;;;;;;9.40;1.27;;;;;;;;;;5307482;23;20035;-90
2023/10/14 08:49:27;;;;;;;11.23;1.70;;;;;;;;;;4938070;29;20251;-87
2023/10/14 09:02:22;;;;;;;9.60;1.33;;;;;;;;;;4937783;29;19971;-90
2023/10/14 09:05:11;;;;;;;9.65;1.20;;;;;;;;;;4909052;29;20100;-90
2023/10/14 09:08:11;;;;;;;;;;;;;;;;;;;;;
2023/10/14 09:21:48;;;;;;;7.20;1.27;;;;;;;;;;5631111;22;15723311;-90
2023/10/14 09:24:48;;;;;;;10.77;1.58;;;;;;;;;;6307793;22;20035;-91
2023/10/14 09:27:32;;;;;;;9.10;1.77;;;;;;;;;;6283784;22;20193;-90
2023/10/14 09:30:18;;;;;;;12.95;2.50;;;;;;;;;;6280831;22;20107;-91
2023/10/14 09:50:24;;;;;;;9.52;2.00;;;;;;;;;;6330613;22;20011;-90
2023/10/14 09:53:08;;;;;;;12.02;1.42;;;;;;;;;;6335390;22;20049;-91
2023/10/14 09:59:54;;;;;;;8.13;1.25;;;;;;;;;;6241915;23;20104;-90
2023/10/14 10:02:43;;;;;;;11.85;1.40;;;;;;;;;;6306368;22;20008;-91
2023/10/14 10:08:17;;;;;;;10.93;1.85;;;;;;;;;;6338728;22;20066;-91
2023/10/14 10:20:40;;;;;;;;;;;;;;;;;;;;;
2023/10/14 10:23:41;;;;;;;7.75;1.50;;;;;;;;;;6323167;22;20023;-90
2023/10/14 10:26:52;;;;;;;9.25;1.20;;;;;;;;;;6326236;22;20084;-92
2023/10/14 10:33:32;;;;;;;8.48;1.23;;;;;;;;;;6327651;22;20001;-90
2023/10/14 10:37:03;;;;;;;;;;;;;;;;;;;;;
2023/10/14 10:45:13;;;;;;;9.32;1.20;;;;;;;;;;6328569;22;20015;-90
2023/10/14 10:51:45;;;;;;;8.02;1.27;;;;;;;;;;6203636;23;20170;-91
2023/10/14 10:54:38;;;;;;;8.90;1.08;;;;;;;;;;6239312;22;20083;-87
2023/10/14 10:57:32;;;;;;;7.47;1.00;;;;;;;;;;6357097;22;20084;-91
2023/10/14 11:01:04;;;;;;;6.03;1.00;;;;;;;;;;6356920;22;20071;-91
2023/10/14 11:07:08;;;;;;;10.27;1.30;;;;;;;;;;6314828;22;20018;-90
2023/10/14 11:10:16;;;;;;;7.68;1.33;;;;;;;;;;6288751;22;20027;-91
2023/10/14 11:29:34;;;;;;;1.45;0.50;;;;;;;;;;6284808;22;20030;-89
2023/10/14 11:32:38;;;;;;;3.55;0.57;;;;;;;;;;6258809;22;20022;-89
2023/10/14 11:35:28;;;;;;;3.05;0.55;;;;;;;;;;6273035;22;20008;-88
2023/10/14 11:38:33;;;;;;;4.90;0.80;;;;;;;;;;6272430;22;20003;-89
2023/10/14 11:41:26;;;;;;;4.15;0.98;;;;;;;;;;6273503;22;20071;-89
2023/10/14 11:58:28;;;;;;;2.22;0.75;;;;;;;;;;6316440;22;20015;-90
2023/10/14 12:01:44;;;;;;;;;;;;;;;;;;;;;
2023/10/14 12:05:12;;;;;;;3.25;0.55;;;;;;;;;;6330384;22;20103;-89
2023/10/14 12:11:30;;;;;;;3.20;0.85;;;;;;;;;;6318916;22;20027;-88
2023/10/14 12:14:30;;;;;;;;;;;;;;;;;;;;;
2023/10/14 12:17:30;;;;;;;3.20;0.88;;;;;;;;;;6322142;22;20131;-89
2023/10/14 12:20:54;;;;;;;4.43;1.13;;;;;;;;;;6196177;23;20031;-88
2023/10/14 12:23:46;;;;;;;8.05;1.40;;;;;;;;;;6194351;23;20025;-88
2023/10/14 12:26:45;;;;;;;4.45;1.05;;;;;;;;;;6176110;23;20029;-89
2023/10/14 12:29:45;;;;;;;4.60;1.27;;;;;;;;;;6194814;23;20237;-89
2023/10/14 12:35:12;;;;;;;;;;;;;;;;;;6318540;22;20090;-89
2023/10/14 12:38:57;;;;;;;6.55;1.15;;;;;;;;;;6254638;22;19915;-89
2023/10/14 12:41:33;;;;;;;6.50;1.10;;;;;;;;;;6193817;23;20005;-89
2023/10/14 12:44:20;;;;;;;3.45;0.73;;;;;;;;;;6299254;22;20039;-89
2023/10/14 12:47:23;;;;;;;5.93;1.08;;;;;;;;;;6299959;22;20026;-88
2023/10/14 12:50:34;;;;;;;8.70;1.20;;;;;;;;;;6268973;22;20015;-89
2023/10/14 12:53:29;;;;;;;9.10;1.05;;;;;;;;;;6279726;22;20019;-87
2023/10/14 12:56:49;;;;;;;;;;;;;;;;;;;;;
2023/10/14 13:58:52;;;;;;;8.38;0.95;;;;;;;;;;6331610;22;20035;-90
2023/10/14 14:01:49;;;;;;;;;;;;;;;;;;;;;
2023/10/14 14:04:36;;;;;;;4.80;1.52;;;;;;;;;;6324457;22;20011;-90
2023/10/14 14:07:41;;;;;;;;;;;;;;;;;;;;;
2023/10/14 14:10:42;;;;;;;7.43;1.30;;;;;;;;;;6333827;22;20030;-89
2023/10/14 14:27:08;;;;;;;11.70;1.27;;;;;;;;;;6297681;22;20007;-90
2023/10/14 14:29:56;;;;;;;9.10;1.35;;;;;;;;;;6318706;22;20069;-91
2023/10/14 14:32:56;;;;;;;9.15;1.25;;;;;;;;;;6287952;22;20008;-91
2023/10/14 14:36:03;;;;;;;9.82;1.13;;;;;;;;;;6275783;22;20020;-90
2023/10/14 14:39:00;;;;;;;;;;;;;;;;;;6298668;22;20035;-90
2023/10/14 14:41:53;;;;;;;6.93;1.13;;;;;;;;;;6298563;22;19923;-92
2023/10/14 14:44:58;;;;;;;8.02;1.17;;;;;;;;;;6296713;22;20054;-90
2023/10/14 14:47:48;;;;;;;6.75;1.83;;;;;;;;;;6295846;22;20016;-91
2023/10/14 14:51:35;;;;;;;;;;;;;;;;;;;;;
2023/10/14 14:54:29;;;;;;;16.88;1.90;;;;;;;;;;6293574;22;20035;-91
2023/10/14 14:57:20;;;;;;;24.77;2.35;;;;;;;;;;6297235;22;19999;-90
2023/10/14 15:00:05;;;;;;;8.43;1.30;;;;;;;;;;6267767;22;20075;-89
2023/10/14 15:02:55;;;;;;;16.92;1.83;;;;;;;;;;6290136;22;20043;-91
2023/10/14 15:05:42;;;;;;;10.27;1.30;;;;;;;;;;6325330;22;20027;-90
2023/10/14 15:08:51;;;;;;;11.07;1.50;;;;;;;;;;6315004;22;20027;-90
2023/10/14 15:15:28;;;;;;;10.10;1.75;;;;;;;;;;6328657;22;20007;-90
2023/10/14 15:22:11;;;;;;;;;;;;;;;;;;;;;
2023/10/14 15:30:12;;;;;;;14.82;1.50;;;;;;;;;;6303074;22;20022;-92
2023/10/14 15:33:35;;;;;;;20.30;1.58;;;;;;;;;;6286098;22;20015;-91
2023/10/14 15:36:21;;;;;;;16.10;1.65;;;;;;;;;;6260042;22;20071;-90
2023/10/14 15:42:16;;;;;;;9.23;1.20;;;;;;;;;;6286304;22;20007;-91
2023/10/14 15:48:21;;;;;;;;;;;;;;;;;;;;;
2023/10/14 15:51:22;;;;;;;7.03;0.90;;;;;;;;;;6329447;22;20013;-88
2023/10/14 15:54:10;;;;;;;3.30;0.98;;;;;;;;;;6289620;22;20023;-90
2023/10/14 16:02:41;;;;;;;;;;;;;;;;;;;;;
2023/10/14 17:17:44;;;;;;;7.35;1.50;;;;;;;;;;6279588;22;20015;-89
2023/10/14 21:20:26;;;;;;;13.20;2.35;;;;;;;;;;6171081;23;20159;-87
2023/10/14 21:42:57;;;;;;;10.63;2.00;;;;;;;;;;6311531;22;20045;-87
2023/10/14 21:46:05;;;;;;;8.23;1.83;;;;;;;;;;6288485;22;20030;-88
2023/10/14 21:48:57;;;;;;;7.32;1.25;;;;;;;;;;6324661;22;20015;-87
2023/10/14 21:52:16;;;;;;;;;;;;;;;;;;;;;
2023/10/14 21:55:36;;;;;;;;;;;;;;;;;;;;;
2023/10/14 21:58:28;;;;;;;8.55;1.50;;;;;;;;;;6323535;22;20555;-89
2023/10/14 22:08:28;;;;;;;7.90;1.15;;;;;;;;;;6314720;22;20049;-88
2023/10/14 22:11:38;;;;;;;6.47;1.20;;;;;;;;;;6288381;22;20034;-88
2023/10/14 22:14:37;;;;;;;7.63;1.08;;;;;;;;;;6153735;23;20041;-88
2023/10/14 22:18:05;;;;;;;7.80;1.30;;;;;;;;;;6176288;23;20001;-89
2023/10/14 22:21:10;;;;;;;9.35;1.63;;;;;;;;;;6163576;23;20095;-88
2023/10/14 22:24:01;;;;;;;13.85;1.52;;;;;;;;;;6156455;23;20001;-88
2023/10/14 22:27:01;;;;;;;8.02;1.45;;;;;;;;;;6332198;22;20054;-88
2023/10/14 23:01:54;;;;;;;3.85;0.73;;;;;;;;;;6322244;22;20046;-88
2023/10/14 23:04:57;;;;;;;5.50;0.93;;;;;;;;;;6329543;22;20007;-88
2023/10/14 23:51:03;;;;;;;3.47;1.10;;;;;;;;;;6288090;22;21825;-86
